sensor_id;sensor_type;location;lat;lon;timestamp;temperature;humidity
9640;DHT22;51745;50.872;4.732;2022-11-24T00:00:44;7.60;99.90
9640;DHT22;51745;50.872;4.732;2022-11-24T00:03:33;7.70;99.90
9640;DHT22;51745;50.872;4.732;2022-11-24T00:06:20;7.70;99.90
9640;DHT22;51745;50.872;4.732;2022-11-24T00:09:09;7.80;99.90
9640;DHT22;51745;50.872;4.732;2022-11-24T00:11:56;7.80;99.90
9640;DHT22;51745;50.872;4.732;2022-11-24T00:14:47;7.80;99.90
9640;DHT22;51745;50.872;4.732;2022-11-24T00:17:36;7.80;99.90
9640;DHT22;51745;50.872;4.732;2022-11-24T00:20:24;7.80;99.90
9640;DHT22;51745;50.872;4.732;2022-11-24T00:23:12;7.80;99.90
9640;DHT22;51745;50.872;4.732;2022-11-24T00:26:03;7.90;99.90
9640;DHT22;51745;50.872;4.732;2022-11-24T00:28:53;7.90;99.90
9640;DHT22;51745;50.872;4.732;2022-11-24T00:31:42;7.90;99.90
9640;DHT22;51745;50.872;4.732;2022-11-24T00:34:31;7.90;99.90
9640;DHT22;51745;50.872;4.732;2022-11-24T00:37:19;7.90;99.90
9640;DHT22;51745;50.872;4.732;2022-11-24T00:40:07;7.90;99.90
9640;DHT22;51745;50.872;4.732;2022-11-24T00:42:55;8.00;99.90
9640;DHT22;51745;50.872;4.732;2022-11-24T00:45:42;7.90;99.90
9640;DHT22;51745;50.872;4.732;2022-11-24T00:48:30;7.90;99.90
9640;DHT22;51745;50.872;4.732;2022-11-24T00:51:20;7.90;99.90
9640;DHT22;51745;50.872;4.732;2022-11-24T00:54:08;7.90;99.90
9640;DHT22;51745;50.872;4.732;2022-11-24T00:56:56;7.90;99.90
9640;DHT22;51745;50.872;4.732;2022-11-24T00:59:44;7.90;99.90
9640;DHT22;51745;50.872;4.732;2022-11-24T01:02:32;7.90;99.90
9640;DHT22;51745;50.872;4.732;2022-11-24T01:05:19;7.90;99.90
9640;DHT22;51745;50.872;4.732;2022-11-24T01:08:08;7.90;99.90
9640;DHT22;51745;50.872;4.732;2022-11-24T01:11:05;7.90;99.90
9640;DHT22;51745;50.872;4.732;2022-11-24T01:13:53;7.80;99.90
9640;DHT22;51745;50.872;4.732;2022-11-24T01:16:42;7.80;99.90
9640;DHT22;51745;50.872;4.732;2022-11-24T01:19:35;7.90;99.90
9640;DHT22;51745;50.872;4.732;2022-11-24T01:22:23;7.90;99.90
9640;DHT22;51745;50.872;4.732;2022-11-24T01:25:14;7.90;99.90
9640;DHT22;51745;50.872;4.732;2022-11-24T01:28:01;7.80;99.90
9640;DHT22;51745;50.872;4.732;2022-11-24T01:30:55;7.90;99.90
9640;DHT22;51745;50.872;4.732;2022-11-24T01:33:43;8.30;99.90
9640;DHT22;51745;50.872;4.732;2022-11-24T01:36:31;8.00;99.90
9640;DHT22;51745;50.872;4.732;2022-11-24T01:39:19;8.00;99.90
9640;DHT22;51745;50.872;4.732;2022-11-24T01:42:08;8.00;99.90
9640;DHT22;51745;50.872;4.732;2022-11-24T01:48:00;8.00;99.90
9640;DHT22;51745;50.872;4.732;2022-11-24T01:50:51;8.00;99.90
9640;DHT22;51745;50.872;4.732;2022-11-24T01:53:40;8.00;99.90
9640;DHT22;51745;50.872;4.732;2022-11-24T01:56:29;8.10;99.90
9640;DHT22;51745;50.872;4.732;2022-11-24T01:59:19;8.10;99.90
9640;DHT22;51745;50.872;4.732;2022-11-24T02:02:10;8.10;99.90
9640;DHT22;51745;50.872;4.732;2022-11-24T02:05:00;8.10;99.90
9640;DHT22;51745;50.872;4.732;2022-11-24T02:07:50;8.10;99.90
9640;DHT22;51745;50.872;4.732;2022-11-24T02:10:41;8.10;99.90
9640;DHT22;51745;50.872;4.732;2022-11-24T02:13:30;8.10;99.90
9640;DHT22;51745;50.872;4.732;2022-11-24T02:16:20;8.20;99.90
9640;DHT22;51745;50.872;4.732;2022-11-24T02:19:10;8.20;99.90
9640;DHT22;51745;50.872;4.732;2022-11-24T02:22:01;8.20;99.90
9640;DHT22;51745;50.872;4.732;2022-11-24T02:24:51;8.30;99.90
9640;DHT22;51745;50.872;4.732;2022-11-24T02:27:44;8.40;99.90
9640;DHT22;51745;50.872;4.732;2022-11-24T02:30:38;8.40;99.90
9640;DHT22;51745;50.872;4.732;2022-11-24T02:33:27;8.30;99.90
9640;DHT22;51745;50.872;4.732;2022-11-24T02:36:15;8.40;99.90
9640;DHT22;51745;50.872;4.732;2022-11-24T02:39:04;8.40;99.90
9640;DHT22;51745;50.872;4.732;2022-11-24T02:41:52;8.40;99.90
9640;DHT22;51745;50.872;4.732;2022-11-24T02:44:42;8.40;99.90
9640;DHT22;51745;50.872;4.732;2022-11-24T02:47:32;8.50;99.90
9640;DHT22;51745;50.872;4.732;2022-11-24T02:50:19;8.50;99.90
9640;DHT22;51745;50.872;4.732;2022-11-24T02:53:07;8.50;99.90
9640;DHT22;51745;50.872;4.732;2022-11-24T02:55:55;8.50;99.90
9640;DHT22;51745;50.872;4.732;2022-11-24T02:58:43;8.50;99.90
9640;DHT22;51745;50.872;4.732;2022-11-24T03:01:32;8.60;99.90
9640;DHT22;51745;50.872;4.732;2022-11-24T03:04:19;8.60;99.90
9640;DHT22;51745;50.872;4.732;2022-11-24T03:07:06;8.60;99.90
9640;DHT22;51745;50.872;4.732;2022-11-24T03:09:55;8.60;99.90
9640;DHT22;51745;50.872;4.732;2022-11-24T03:12:43;8.80;99.90
9640;DHT22;51745;50.872;4.732;2022-11-24T03:15:30;9.30;99.90
9640;DHT22;51745;50.872;4.732;2022-11-24T03:18:22;8.80;99.90
9640;DHT22;51745;50.872;4.732;2022-11-24T03:21:10;8.70;99.90
9640;DHT22;51745;50.872;4.732;2022-11-24T03:23:58;8.80;99.90
9640;DHT22;51745;50.872;4.732;2022-11-24T03:26:46;8.70;99.90
9640;DHT22;51745;50.872;4.732;2022-11-24T03:29:34;8.80;99.90
9640;DHT22;51745;50.872;4.732;2022-11-24T03:32:22;8.70;99.90
9640;DHT22;51745;50.872;4.732;2022-11-24T03:35:11;8.70;99.90
9640;DHT22;51745;50.872;4.732;2022-11-24T03:37:58;8.60;99.90
9640;DHT22;51745;50.872;4.732;2022-11-24T03:40:47;8.60;99.90
9640;DHT22;51745;50.872;4.732;2022-11-24T03:43:35;8.50;99.90
9640;DHT22;51745;50.872;4.732;2022-11-24T03:46:29;8.50;99.90
9640;DHT22;51745;50.872;4.732;2022-11-24T03:49:16;8.50;99.90
9640;DHT22;51745;50.872;4.732;2022-11-24T03:52:05;8.40;99.90
9640;DHT22;51745;50.872;4.732;2022-11-24T03:54:53;8.40;99.90
9640;DHT22;51745;50.872;4.732;2022-11-24T03:57:40;10.40;99.90
9640;DHT22;51745;50.872;4.732;2022-11-24T04:00:28;8.50;99.90
9640;DHT22;51745;50.872;4.732;2022-11-24T04:03:16;8.50;99.90
9640;DHT22;51745;50.872;4.732;2022-11-24T04:06:04;8.50;99.90
9640;DHT22;51745;50.872;4.732;2022-11-24T04:08:54;9.20;99.90
9640;DHT22;51745;50.872;4.732;2022-11-24T04:11:41;7.50;99.90
9640;DHT22;51745;50.872;4.732;2022-11-24T04:14:47;8.40;99.90
9640;DHT22;51745;50.872;4.732;2022-11-24T04:17:34;8.40;99.90
9640;DHT22;51745;50.872;4.732;2022-11-24T04:20:22;8.40;99.90
9640;DHT22;51745;50.872;4.732;2022-11-24T04:23:11;8.40;99.90
9640;DHT22;51745;50.872;4.732;2022-11-24T04:26:00;8.40;99.90
9640;DHT22;51745;50.872;4.732;2022-11-24T04:28:47;8.40;99.90
9640;DHT22;51745;50.872;4.732;2022-11-24T04:31:34;8.40;99.90
9640;DHT22;51745;50.872;4.732;2022-11-24T04:34:22;8.30;99.90
9640;DHT22;51745;50.872;4.732;2022-11-24T04:37:09;8.30;99.90
9640;DHT22;51745;50.872;4.732;2022-11-24T04:39:57;7.40;99.90
9640;DHT22;51745;50.872;4.732;2022-11-24T04:42:52;8.30;99.90
9640;DHT22;51745;50.872;4.732;2022-11-24T04:45:40;8.30;99.90
9640;DHT22;51745;50.872;4.732;2022-11-24T04:48:28;8.20;99.90
9640;DHT22;51745;50.872;4.732;2022-11-24T04:51:16;8.20;99.90
9640;DHT22;51745;50.872;4.732;2022-11-24T04:54:03;8.20;99.90
9640;DHT22;51745;50.872;4.732;2022-11-24T04:56:51;8.20;99.90
9640;DHT22;51745;50.872;4.732;2022-11-24T04:59:40;8.10;99.90
9640;DHT22;51745;50.872;4.732;2022-11-24T05:02:28;8.10;99.90
9640;DHT22;51745;50.872;4.732;2022-11-24T05:05:16;8.00;99.90
9640;DHT22;51745;50.872;4.732;2022-11-24T05:08:04;8.00;99.90
9640;DHT22;51745;50.872;4.732;2022-11-24T05:10:54;8.00;99.90
9640;DHT22;51745;50.872;4.732;2022-11-24T05:13:42;7.90;99.90
9640;DHT22;51745;50.872;4.732;2022-11-24T05:16:32;8.00;99.90
9640;DHT22;51745;50.872;4.732;2022-11-24T05:19:21;7.90;99.90
9640;DHT22;51745;50.872;4.732;2022-11-24T05:22:14;7.80;99.90
9640;DHT22;51745;50.872;4.732;2022-11-24T05:25:02;7.70;99.90
9640;DHT22;51745;50.872;4.732;2022-11-24T05:27:50;7.80;99.90
9640;DHT22;51745;50.872;4.732;2022-11-24T05:30:37;7.80;99.90
9640;DHT22;51745;50.872;4.732;2022-11-24T05:33:26;7.70;99.90
9640;DHT22;51745;50.872;4.732;2022-11-24T05:36:16;7.70;99.90
9640;DHT22;51745;50.872;4.732;2022-11-24T05:39:17;7.60;99.90
9640;DHT22;51745;50.872;4.732;2022-11-24T05:42:05;7.60;99.90
9640;DHT22;51745;50.872;4.732;2022-11-24T05:45:07;7.60;99.90
9640;DHT22;51745;50.872;4.732;2022-11-24T05:50:46;7.50;99.90
9640;DHT22;51745;50.872;4.732;2022-11-24T05:53:39;8.10;99.90
9640;DHT22;51745;50.872;4.732;2022-11-24T05:56:26;7.50;99.90
9640;DHT22;51745;50.872;4.732;2022-11-24T05:59:15;7.40;99.90
9640;DHT22;51745;50.872;4.732;2022-11-24T06:04:50;7.50;99.90
9640;DHT22;51745;50.872;4.732;2022-11-24T06:07:39;7.50;99.90
9640;DHT22;51745;50.872;4.732;2022-11-24T06:10:28;7.50;99.90
9640;DHT22;51745;50.872;4.732;2022-11-24T06:13:16;7.40;99.90
9640;DHT22;51745;50.872;4.732;2022-11-24T06:16:05;7.40;99.90
9640;DHT22;51745;50.872;4.732;2022-11-24T06:18:53;7.40;99.90
9640;DHT22;51745;50.872;4.732;2022-11-24T06:21:41;7.30;99.90
9640;DHT22;51745;50.872;4.732;2022-11-24T06:24:31;7.40;99.90
9640;DHT22;51745;50.872;4.732;2022-11-24T06:30:08;7.40;99.90
9640;DHT22;51745;50.872;4.732;2022-11-24T06:32:55;7.40;99.90
9640;DHT22;51745;50.872;4.732;2022-11-24T06:35:43;7.40;99.90
9640;DHT22;51745;50.872;4.732;2022-11-24T06:38:31;7.40;99.90
9640;DHT22;51745;50.872;4.732;2022-11-24T06:41:20;7.30;99.90
9640;DHT22;51745;50.872;4.732;2022-11-24T06:44:08;7.30;99.90
9640;DHT22;51745;50.872;4.732;2022-11-24T06:46:55;7.30;99.90
9640;DHT22;51745;50.872;4.732;2022-11-24T06:49:43;7.30;99.90
9640;DHT22;51745;50.872;4.732;2022-11-24T06:52:30;7.20;99.90
9640;DHT22;51745;50.872;4.732;2022-11-24T06:55:18;7.20;99.90
9640;DHT22;51745;50.872;4.732;2022-11-24T06:58:07;7.20;99.90
9640;DHT22;51745;50.872;4.732;2022-11-24T07:00:56;7.20;99.90
9640;DHT22;51745;50.872;4.732;2022-11-24T07:03:44;7.30;99.90
9640;DHT22;51745;50.872;4.732;2022-11-24T07:06:32;7.30;99.90
9640;DHT22;51745;50.872;4.732;2022-11-24T07:09:20;7.30;99.90
9640;DHT22;51745;50.872;4.732;2022-11-24T07:12:08;7.30;99.90
9640;DHT22;51745;50.872;4.732;2022-11-24T07:14:56;7.30;99.90
9640;DHT22;51745;50.872;4.732;2022-11-24T07:17:46;7.30;99.90
9640;DHT22;51745;50.872;4.732;2022-11-24T07:20:34;7.30;99.90
9640;DHT22;51745;50.872;4.732;2022-11-24T07:23:22;7.30;99.90
9640;DHT22;51745;50.872;4.732;2022-11-24T07:26:10;7.30;99.90
9640;DHT22;51745;50.872;4.732;2022-11-24T07:28:58;7.30;99.90
9640;DHT22;51745;50.872;4.732;2022-11-24T07:31:47;6.80;99.90
9640;DHT22;51745;50.872;4.732;2022-11-24T07:40:16;7.40;99.90
9640;DHT22;51745;50.872;4.732;2022-11-24T07:43:03;7.40;99.90
9640;DHT22;51745;50.872;4.732;2022-11-24T07:45:55;7.30;99.90
9640;DHT22;51745;50.872;4.732;2022-11-24T07:48:47;7.40;99.90
9640;DHT22;51745;50.872;4.732;2022-11-24T07:51:34;7.30;99.90
9640;DHT22;51745;50.872;4.732;2022-11-24T07:54:22;7.30;99.90
9640;DHT22;51745;50.872;4.732;2022-11-24T07:57:10;7.30;99.90
9640;DHT22;51745;50.872;4.732;2022-11-24T07:59:58;7.40;99.90
9640;DHT22;51745;50.872;4.732;2022-11-24T08:02:45;7.30;99.90
9640;DHT22;51745;50.872;4.732;2022-11-24T08:05:53;7.30;99.90
9640;DHT22;51745;50.872;4.732;2022-11-24T08:09:01;7.30;99.90
9640;DHT22;51745;50.872;4.732;2022-11-24T08:11:49;7.40;99.90
9640;DHT22;51745;50.872;4.732;2022-11-24T08:14:36;7.40;99.90
9640;DHT22;51745;50.872;4.732;2022-11-24T08:20:12;7.40;99.90
9640;DHT22;51745;50.872;4.732;2022-11-24T08:23:03;7.40;99.90
9640;DHT22;51745;50.872;4.732;2022-11-24T08:25:51;7.50;99.90
9640;DHT22;51745;50.872;4.732;2022-11-24T08:28:42;7.20;99.90
9640;DHT22;51745;50.872;4.732;2022-11-24T08:34:19;7.50;99.90
9640;DHT22;51745;50.872;4.732;2022-11-24T08:37:07;7.50;99.90
9640;DHT22;51745;50.872;4.732;2022-11-24T08:39:56;7.50;99.90
9640;DHT22;51745;50.872;4.732;2022-11-24T08:42:43;7.90;99.90
9640;DHT22;51745;50.872;4.732;2022-11-24T08:45:31;7.40;99.90
9640;DHT22;51745;50.872;4.732;2022-11-24T08:48:27;7.40;99.90
9640;DHT22;51745;50.872;4.732;2022-11-24T08:51:15;7.70;99.90
9640;DHT22;51745;50.872;4.732;2022-11-24T08:54:03;7.90;99.90
9640;DHT22;51745;50.872;4.732;2022-11-24T08:56:52;7.80;99.90
9640;DHT22;51745;50.872;4.732;2022-11-24T08:59:40;7.80;99.90
9640;DHT22;51745;50.872;4.732;2022-11-24T09:02:27;7.90;99.90
9640;DHT22;51745;50.872;4.732;2022-11-24T09:08:23;8.00;99.90
9640;DHT22;51745;50.872;4.732;2022-11-24T09:11:10;8.00;99.90
9640;DHT22;51745;50.872;4.732;2022-11-24T09:14:00;8.00;99.90
9640;DHT22;51745;50.872;4.732;2022-11-24T09:16:48;8.40;99.90
9640;DHT22;51745;50.872;4.732;2022-11-24T09:19:36;5.80;99.90
9640;DHT22;51745;50.872;4.732;2022-11-24T09:22:24;8.20;99.90
9640;DHT22;51745;50.872;4.732;2022-11-24T09:25:12;8.20;99.90
9640;DHT22;51745;50.872;4.732;2022-11-24T09:28:00;8.40;99.90
9640;DHT22;51745;50.872;4.732;2022-11-24T09:30:49;8.40;99.90
9640;DHT22;51745;50.872;4.732;2022-11-24T09:33:37;8.40;99.90
9640;DHT22;51745;50.872;4.732;2022-11-24T09:36:25;8.50;99.90
9640;DHT22;51745;50.872;4.732;2022-11-24T09:39:13;8.50;99.90
9640;DHT22;51745;50.872;4.732;2022-11-24T09:42:07;8.70;99.90
9640;DHT22;51745;50.872;4.732;2022-11-24T09:45:02;8.60;99.90
9640;DHT22;51745;50.872;4.732;2022-11-24T09:47:55;8.60;99.90
9640;DHT22;51745;50.872;4.732;2022-11-24T09:50:45;8.40;99.90
9640;DHT22;51745;50.872;4.732;2022-11-24T09:53:35;8.60;99.90
9640;DHT22;51745;50.872;4.732;2022-11-24T09:56:25;8.60;99.90
9640;DHT22;51745;50.872;4.732;2022-11-24T09:59:15;10.60;99.90
9640;DHT22;51745;50.872;4.732;2022-11-24T10:02:06;8.80;99.90
9640;DHT22;51745;50.872;4.732;2022-11-24T10:04:57;8.90;99.90
9640;DHT22;51745;50.872;4.732;2022-11-24T10:07:48;8.70;99.90
9640;DHT22;51745;50.872;4.732;2022-11-24T10:10:43;9.00;99.90
9640;DHT22;51745;50.872;4.732;2022-11-24T10:13:56;9.00;99.90
9640;DHT22;51745;50.872;4.732;2022-11-24T10:16:49;9.10;99.90
9640;DHT22;51745;50.872;4.732;2022-11-24T10:19:42;9.10;99.90
9640;DHT22;51745;50.872;4.732;2022-11-24T10:22:37;9.20;99.90
9640;DHT22;51745;50.872;4.732;2022-11-24T10:25:29;9.20;99.90
9640;DHT22;51745;50.872;4.732;2022-11-24T10:28:24;9.30;99.90
9640;DHT22;51745;50.872;4.732;2022-11-24T10:31:16;9.30;99.90
9640;DHT22;51745;50.872;4.732;2022-11-24T10:34:08;9.30;99.90
9640;DHT22;51745;50.872;4.732;2022-11-24T10:37:00;9.50;99.90
9640;DHT22;51745;50.872;4.732;2022-11-24T10:39:55;9.60;99.90
9640;DHT22;51745;50.872;4.732;2022-11-24T10:42:47;9.70;99.90
9640;DHT22;51745;50.872;4.732;2022-11-24T10:45:35;9.60;99.90
9640;DHT22;51745;50.872;4.732;2022-11-24T10:48:25;9.60;99.90
9640;DHT22;51745;50.872;4.732;2022-11-24T10:51:28;9.70;99.90
9640;DHT22;51745;50.872;4.732;2022-11-24T10:54:19;9.70;99.90
9640;DHT22;51745;50.872;4.732;2022-11-24T10:57:08;9.80;99.90
9640;DHT22;51745;50.872;4.732;2022-11-24T11:00:29;9.80;99.90
9640;DHT22;51745;50.872;4.732;2022-11-24T11:03:17;9.90;99.90
9640;DHT22;51745;50.872;4.732;2022-11-24T11:06:08;10.00;99.90
9640;DHT22;51745;50.872;4.732;2022-11-24T11:09:09;10.20;99.90
9640;DHT22;51745;50.872;4.732;2022-11-24T11:11:58;10.10;99.90
9640;DHT22;51745;50.872;4.732;2022-11-24T11:15:22;10.20;99.90
9640;DHT22;51745;50.872;4.732;2022-11-24T11:18:11;10.20;99.90
9640;DHT22;51745;50.872;4.732;2022-11-24T11:21:02;10.30;99.90
9640;DHT22;51745;50.872;4.732;2022-11-24T11:23:51;10.40;99.90
9640;DHT22;51745;50.872;4.732;2022-11-24T11:26:39;10.40;99.90
9640;DHT22;51745;50.872;4.732;2022-11-24T11:29:28;10.40;99.90
9640;DHT22;51745;50.872;4.732;2022-11-24T11:32:48;10.40;99.90
9640;DHT22;51745;50.872;4.732;2022-11-24T11:35:57;10.50;99.90
9640;DHT22;51745;50.872;4.732;2022-11-24T11:38:47;10.50;99.90
9640;DHT22;51745;50.872;4.732;2022-11-24T11:41:35;10.60;99.90
9640;DHT22;51745;50.872;4.732;2022-11-24T11:47:16;10.60;99.90
9640;DHT22;51745;50.872;4.732;2022-11-24T11:50:11;10.60;99.90
9640;DHT22;51745;50.872;4.732;2022-11-24T11:53:00;10.60;99.90
9640;DHT22;51745;50.872;4.732;2022-11-24T11:55:57;10.60;99.90
9640;DHT22;51745;50.872;4.732;2022-11-24T12:01:58;10.70;99.90
9640;DHT22;51745;50.872;4.732;2022-11-24T12:04:50;10.70;99.90
9640;DHT22;51745;50.872;4.732;2022-11-24T12:07:46;10.60;99.90
9640;DHT22;51745;50.872;4.732;2022-11-24T12:10:38;10.80;99.90
9640;DHT22;51745;50.872;4.732;2022-11-24T12:13:35;10.90;99.90
9640;DHT22;51745;50.872;4.732;2022-11-24T12:16:29;11.00;99.90
9640;DHT22;51745;50.872;4.732;2022-11-24T12:19:26;11.10;99.90
9640;DHT22;51745;50.872;4.732;2022-11-24T12:22:22;11.20;99.90
9640;DHT22;51745;50.872;4.732;2022-11-24T12:25:19;11.30;99.90
9640;DHT22;51745;50.872;4.732;2022-11-24T12:28:13;11.20;99.90
9640;DHT22;51745;50.872;4.732;2022-11-24T12:31:06;11.20;99.90
9640;DHT22;51745;50.872;4.732;2022-11-24T12:34:02;12.20;99.90
9640;DHT22;51745;50.872;4.732;2022-11-24T12:37:12;11.40;99.90
9640;DHT22;51745;50.872;4.732;2022-11-24T12:40:03;11.10;99.90
9640;DHT22;51745;50.872;4.732;2022-11-24T12:42:54;11.00;99.90
9640;DHT22;51745;50.872;4.732;2022-11-24T12:45:48;11.10;99.90
9640;DHT22;51745;50.872;4.732;2022-11-24T12:48:41;10.70;99.90
9640;DHT22;51745;50.872;4.732;2022-11-24T12:51:31;11.20;99.90
9640;DHT22;51745;50.872;4.732;2022-11-24T12:54:20;10.80;99.90
9640;DHT22;51745;50.872;4.732;2022-11-24T12:57:12;11.10;99.90
9640;DHT22;51745;50.872;4.732;2022-11-24T13:00:04;11.30;99.90
9640;DHT22;51745;50.872;4.732;2022-11-24T13:02:58;11.30;99.90
9640;DHT22;51745;50.872;4.732;2022-11-24T13:05:54;11.30;99.90
9640;DHT22;51745;50.872;4.732;2022-11-24T13:08:44;11.30;99.90
9640;DHT22;51745;50.872;4.732;2022-11-24T13:11:37;11.40;99.90
9640;DHT22;51745;50.872;4.732;2022-11-24T13:14:28;11.40;99.90
9640;DHT22;51745;50.872;4.732;2022-11-24T13:17:28;11.40;99.90
9640;DHT22;51745;50.872;4.732;2022-11-24T13:20:29;11.30;99.90
9640;DHT22;51745;50.872;4.732;2022-11-24T13:23:20;11.30;99.90
9640;DHT22;51745;50.872;4.732;2022-11-24T13:26:13;11.30;99.90
9640;DHT22;51745;50.872;4.732;2022-11-24T13:29:02;11.40;99.90
9640;DHT22;51745;50.872;4.732;2022-11-24T13:35:17;11.50;99.90
9640;DHT22;51745;50.872;4.732;2022-11-24T13:44:24;11.60;99.90
9640;DHT22;51745;50.872;4.732;2022-11-24T13:47:28;11.50;99.90
9640;DHT22;51745;50.872;4.732;2022-11-24T13:53:24;11.50;99.90
9640;DHT22;51745;50.872;4.732;2022-11-24T13:56:19;11.10;99.90
9640;DHT22;51745;50.872;4.732;2022-11-24T13:59:13;11.70;99.90
9640;DHT22;51745;50.872;4.732;2022-11-24T14:02:07;11.30;99.90
9640;DHT22;51745;50.872;4.732;2022-11-24T14:05:04;11.20;99.90
9640;DHT22;51745;50.872;4.732;2022-11-24T14:07:51;11.10;99.90
9640;DHT22;51745;50.872;4.732;2022-11-24T14:10:41;11.00;99.90
9640;DHT22;51745;50.872;4.732;2022-11-24T14:13:30;11.10;99.90
9640;DHT22;51745;50.872;4.732;2022-11-24T14:16:19;10.80;99.90
9640;DHT22;51745;50.872;4.732;2022-11-24T14:19:08;10.70;99.90
9640;DHT22;51745;50.872;4.732;2022-11-24T14:21:56;10.70;99.90
9640;DHT22;51745;50.872;4.732;2022-11-24T14:24:45;10.60;99.90
9640;DHT22;51745;50.872;4.732;2022-11-24T14:27:41;10.60;99.90
9640;DHT22;51745;50.872;4.732;2022-11-24T14:30:29;10.40;99.90
9640;DHT22;51745;50.872;4.732;2022-11-24T14:33:17;10.40;99.90
9640;DHT22;51745;50.872;4.732;2022-11-24T14:36:12;10.40;99.90
9640;DHT22;51745;50.872;4.732;2022-11-24T14:39:03;10.10;99.90
9640;DHT22;51745;50.872;4.732;2022-11-24T14:41:51;10.00;99.90
9640;DHT22;51745;50.872;4.732;2022-11-24T14:44:45;10.20;99.90
9640;DHT22;51745;50.872;4.732;2022-11-24T14:47:34;10.00;99.90
9640;DHT22;51745;50.872;4.732;2022-11-24T14:50:23;9.90;99.90
9640;DHT22;51745;50.872;4.732;2022-11-24T14:53:12;9.60;99.90
9640;DHT22;51745;50.872;4.732;2022-11-24T14:56:08;9.60;99.90
9640;DHT22;51745;50.872;4.732;2022-11-24T14:58:57;9.50;99.90
9640;DHT22;51745;50.872;4.732;2022-11-24T15:01:46;9.50;99.90
9640;DHT22;51745;50.872;4.732;2022-11-24T15:04:34;9.40;99.90
9640;DHT22;51745;50.872;4.732;2022-11-24T15:07:49;9.30;99.90
9640;DHT22;51745;50.872;4.732;2022-11-24T15:10:38;9.20;99.90
9640;DHT22;51745;50.872;4.732;2022-11-24T15:13:26;8.60;99.90
9640;DHT22;51745;50.872;4.732;2022-11-24T15:16:15;9.00;99.90
9640;DHT22;51745;50.872;4.732;2022-11-24T15:19:11;9.00;99.90
9640;DHT22;51745;50.872;4.732;2022-11-24T15:25:23;8.50;99.90
9640;DHT22;51745;50.872;4.732;2022-11-24T15:28:14;8.70;99.90
9640;DHT22;51745;50.872;4.732;2022-11-24T15:31:01;8.60;99.90
9640;DHT22;51745;50.872;4.732;2022-11-24T15:33:54;8.60;99.90
9640;DHT22;51745;50.872;4.732;2022-11-24T15:36:44;8.50;99.90
9640;DHT22;51745;50.872;4.732;2022-11-24T15:39:32;8.10;99.90
9640;DHT22;51745;50.872;4.732;2022-11-24T15:42:22;9.30;99.90
9640;DHT22;51745;50.872;4.732;2022-11-24T15:45:10;8.40;99.90
9640;DHT22;51745;50.872;4.732;2022-11-24T15:47:58;8.30;99.90
9640;DHT22;51745;50.872;4.732;2022-11-24T15:50:47;7.30;99.90
9640;DHT22;51745;50.872;4.732;2022-11-24T15:53:37;8.20;99.90
9640;DHT22;51745;50.872;4.732;2022-11-24T15:56:28;8.20;99.90
9640;DHT22;51745;50.872;4.732;2022-11-24T15:59:17;8.10;99.90
9640;DHT22;51745;50.872;4.732;2022-11-24T16:02:07;8.10;99.90
9640;DHT22;51745;50.872;4.732;2022-11-24T16:04:57;8.00;99.90
9640;DHT22;51745;50.872;4.732;2022-11-24T16:07:48;7.90;99.90
9640;DHT22;51745;50.872;4.732;2022-11-24T16:10:40;7.90;99.90
9640;DHT22;51745;50.872;4.732;2022-11-24T16:13:29;7.90;99.90
9640;DHT22;51745;50.872;4.732;2022-11-24T16:16:19;7.80;99.90
9640;DHT22;51745;50.872;4.732;2022-11-24T16:19:07;6.40;99.90
9640;DHT22;51745;50.872;4.732;2022-11-24T16:21:58;8.00;99.90
9640;DHT22;51745;50.872;4.732;2022-11-24T16:24:48;7.90;99.90
9640;DHT22;51745;50.872;4.732;2022-11-24T16:27:38;7.60;99.90
9640;DHT22;51745;50.872;4.732;2022-11-24T16:30:26;8.00;99.90
9640;DHT22;51745;50.872;4.732;2022-11-24T16:33:14;7.30;99.90
9640;DHT22;51745;50.872;4.732;2022-11-24T16:36:02;7.30;99.90
9640;DHT22;51745;50.872;4.732;2022-11-24T16:38:52;7.20;99.90
9640;DHT22;51745;50.872;4.732;2022-11-24T16:41:43;7.20;99.90
9640;DHT22;51745;50.872;4.732;2022-11-24T16:44:33;7.50;99.90
9640;DHT22;51745;50.872;4.732;2022-11-24T16:47:22;7.50;99.90
9640;DHT22;51745;50.872;4.732;2022-11-24T16:50:10;7.40;99.90
9640;DHT22;51745;50.872;4.732;2022-11-24T16:52:59;7.40;99.90
9640;DHT22;51745;50.872;4.732;2022-11-24T16:55:55;7.30;99.90
9640;DHT22;51745;50.872;4.732;2022-11-24T16:58:43;7.30;99.90
9640;DHT22;51745;50.872;4.732;2022-11-24T17:01:31;7.70;99.90
9640;DHT22;51745;50.872;4.732;2022-11-24T17:04:19;7.30;99.90
9640;DHT22;51745;50.872;4.732;2022-11-24T17:07:07;7.20;99.90
9640;DHT22;51745;50.872;4.732;2022-11-24T17:09:55;7.20;99.90
9640;DHT22;51745;50.872;4.732;2022-11-24T17:12:43;7.20;99.90
9640;DHT22;51745;50.872;4.732;2022-11-24T17:15:31;7.10;99.90
9640;DHT22;51745;50.872;4.732;2022-11-24T17:18:27;8.10;99.90
9640;DHT22;51745;50.872;4.732;2022-11-24T17:21:15;7.10;99.90
9640;DHT22;51745;50.872;4.732;2022-11-24T17:24:03;7.10;99.90
9640;DHT22;51745;50.872;4.732;2022-11-24T17:26:51;6.70;99.90
9640;DHT22;51745;50.872;4.732;2022-11-24T17:29:39;7.30;99.90
9640;DHT22;51745;50.872;4.732;2022-11-24T17:32:27;7.00;99.90
9640;DHT22;51745;50.872;4.732;2022-11-24T17:35:18;7.00;99.90
9640;DHT22;51745;50.872;4.732;2022-11-24T17:38:06;6.90;99.90
9640;DHT22;51745;50.872;4.732;2022-11-24T17:40:54;6.90;99.90
9640;DHT22;51745;50.872;4.732;2022-11-24T17:43:42;6.90;99.90
9640;DHT22;51745;50.872;4.732;2022-11-24T17:46:34;6.90;99.90
9640;DHT22;51745;50.872;4.732;2022-11-24T17:49:23;6.30;99.90
9640;DHT22;51745;50.872;4.732;2022-11-24T17:52:14;7.00;99.90
9640;DHT22;51745;50.872;4.732;2022-11-24T17:57:58;7.10;99.90
9640;DHT22;51745;50.872;4.732;2022-11-24T18:00:53;5.50;99.90
9640;DHT22;51745;50.872;4.732;2022-11-24T18:03:42;7.20;99.90
9640;DHT22;51745;50.872;4.732;2022-11-24T18:06:44;7.30;99.90
9640;DHT22;51745;50.872;4.732;2022-11-24T18:09:33;7.10;99.90
9640;DHT22;51745;50.872;4.732;2022-11-24T18:12:22;7.00;99.90
9640;DHT22;51745;50.872;4.732;2022-11-24T18:15:11;7.10;99.90
9640;DHT22;51745;50.872;4.732;2022-11-24T18:17:58;6.90;99.90
9640;DHT22;51745;50.872;4.732;2022-11-24T18:20:51;6.70;99.90
9640;DHT22;51745;50.872;4.732;2022-11-24T18:23:42;6.90;99.90
9640;DHT22;51745;50.872;4.732;2022-11-24T18:26:34;6.90;99.90
9640;DHT22;51745;50.872;4.732;2022-11-24T18:29:22;5.80;99.90
9640;DHT22;51745;50.872;4.732;2022-11-24T18:32:10;7.10;99.90
9640;DHT22;51745;50.872;4.732;2022-11-24T18:34:59;6.70;99.90
9640;DHT22;51745;50.872;4.732;2022-11-24T18:37:48;6.60;99.90
9640;DHT22;51745;50.872;4.732;2022-11-24T18:40:36;6.70;99.90
9640;DHT22;51745;50.872;4.732;2022-11-24T18:43:31;6.70;99.90
9640;DHT22;51745;50.872;4.732;2022-11-24T18:46:19;6.90;99.90
9640;DHT22;51745;50.872;4.732;2022-11-24T18:49:09;6.80;99.90
9640;DHT22;51745;50.872;4.732;2022-11-24T18:51:57;6.60;99.90
9640;DHT22;51745;50.872;4.732;2022-11-24T18:54:45;7.10;99.90
9640;DHT22;51745;50.872;4.732;2022-11-24T18:57:36;6.70;99.90
9640;DHT22;51745;50.872;4.732;2022-11-24T19:00:24;6.50;99.90
9640;DHT22;51745;50.872;4.732;2022-11-24T19:03:13;6.60;99.90
9640;DHT22;51745;50.872;4.732;2022-11-24T19:06:00;6.80;99.90
9640;DHT22;51745;50.872;4.732;2022-11-24T19:08:50;6.90;99.90
9640;DHT22;51745;50.872;4.732;2022-11-24T19:11:40;7.00;99.90
9640;DHT22;51745;50.872;4.732;2022-11-24T19:14:30;7.30;99.90
9640;DHT22;51745;50.872;4.732;2022-11-24T19:17:19;7.10;99.90
9640;DHT22;51745;50.872;4.732;2022-11-24T19:20:07;7.20;99.90